sensor_id;sensor_type;location;lat;lon;timestamp;pressure;altitude;pressure_sealevel;temperature;humidity
20350;BME280;10332;50.208;18.988;2022-12-07T00:01:43;97560.00;;;3.16;100.00
20350;BME280;10332;50.208;18.988;2022-12-07T00:04:15;97563.16;;;3.21;100.00
20350;BME280;10332;50.208;18.988;2022-12-07T00:06:46;97560.38;;;3.25;100.00
20350;BME280;10332;50.208;18.988;2022-12-07T00:09:16;97564.16;;;3.18;100.00
20350;BME280;10332;50.208;18.988;2022-12-07T00:11:45;97560.22;;;3.28;100.00
20350;BME280;10332;50.208;18.988;2022-12-07T00:14:16;97560.50;;;3.22;100.00
20350;BME280;10332;50.208;18.988;2022-12-07T00:16:44;97560.47;;;3.24;100.00
20350;BME280;10332;50.208;18.988;2022-12-07T00:19:13;97556.06;;;3.26;100.00
20350;BME280;10332;50.208;18.988;2022-12-07T00:21:41;97557.88;;;3.24;100.00
20350;BME280;10332;50.208;18.988;2022-12-07T00:24:10;97563.50;;;3.32;100.00
20350;BME280;10332;50.208;18.988;2022-12-07T00:26:40;97559.44;;;3.45;99.63
20350;BME280;10332;50.208;18.988;2022-12-07T00:29:21;97552.41;;;3.30;99.29
20350;BME280;10332;50.208;18.988;2022-12-07T00:31:51;97557.88;;;3.24;99.64
20350;BME280;10332;50.208;18.988;2022-12-07T00:34:20;97545.81;;;3.24;100.00
20350;BME280;10332;50.208;18.988;2022-12-07T00:36:49;97548.09;;;3.30;100.00
20350;BME280;10332;50.208;18.988;2022-12-07T00:39:17;97548.00;;;3.32;100.00
20350;BME280;10332;50.208;18.988;2022-12-07T00:41:44;97542.09;;;3.30;100.00
20350;BME280;10332;50.208;18.988;2022-12-07T00:44:12;97547.44;;;3.44;100.00
20350;BME280;10332;50.208;18.988;2022-12-07T00:46:40;97546.97;;;3.36;100.00
20350;BME280;10332;50.208;18.988;2022-12-07T00:49:07;97550.16;;;3.24;100.00
20350;BME280;10332;50.208;18.988;2022-12-07T00:51:35;97534.72;;;3.22;100.00
20350;BME280;10332;50.208;18.988;2022-12-07T00:54:02;97533.44;;;3.31;100.00
20350;BME280;10332;50.208;18.988;2022-12-07T00:56:30;97541.66;;;3.39;100.00
20350;BME280;10332;50.208;18.988;2022-12-07T00:59:01;97535.13;;;3.32;100.00
20350;BME280;10332;50.208;18.988;2022-12-07T01:01:33;97535.44;;;3.26;100.00
20350;BME280;10332;50.208;18.988;2022-12-07T01:04:02;97545.31;;;3.35;100.00
20350;BME280;10332;50.208;18.988;2022-12-07T01:06:30;97533.75;;;3.25;100.00
20350;BME280;10332;50.208;18.988;2022-12-07T01:08:59;97528.75;;;3.39;100.00
20350;BME280;10332;50.208;18.988;2022-12-07T01:11:29;97532.78;;;3.27;100.00
20350;BME280;10332;50.208;18.988;2022-12-07T01:13:59;97523.69;;;3.37;100.00
20350;BME280;10332;50.208;18.988;2022-12-07T01:16:29;97521.84;;;3.39;100.00
20350;BME280;10332;50.208;18.988;2022-12-07T01:19:00;97515.84;;;3.39;100.00
20350;BME280;10332;50.208;18.988;2022-12-07T01:21:33;97518.16;;;3.45;100.00
20350;BME280;10332;50.208;18.988;2022-12-07T01:24:09;97515.31;;;3.50;100.00
20350;BME280;10332;50.208;18.988;2022-12-07T01:26:38;97513.06;;;3.61;100.00
20350;BME280;10332;50.208;18.988;2022-12-07T01:29:05;97514.00;;;3.60;100.00
20350;BME280;10332;50.208;18.988;2022-12-07T01:31:33;97508.28;;;3.53;100.00
20350;BME280;10332;50.208;18.988;2022-12-07T01:34:01;97515.66;;;3.61;100.00
20350;BME280;10332;50.208;18.988;2022-12-07T01:36:33;97513.53;;;3.69;100.00
20350;BME280;10332;50.208;18.988;2022-12-07T01:39:06;97519.38;;;3.73;100.00
20350;BME280;10332;50.208;18.988;2022-12-07T01:41:38;97512.53;;;3.72;100.00
20350;BME280;10332;50.208;18.988;2022-12-07T01:44:22;97512.63;;;3.70;100.00
20350;BME280;10332;50.208;18.988;2022-12-07T01:52:23;97508.59;;;3.64;100.00
20350;BME280;10332;50.208;18.988;2022-12-07T01:55:04;97507.22;;;3.75;100.00
20350;BME280;10332;50.208;18.988;2022-12-07T01:57:38;97500.53;;;3.70;100.00
20350;BME280;10332;50.208;18.988;2022-12-07T02:00:09;97506.75;;;3.66;100.00
20350;BME280;10332;50.208;18.988;2022-12-07T02:05:17;97504.09;;;3.85;100.00
20350;BME280;10332;50.208;18.988;2022-12-07T02:07:47;97513.00;;;3.80;100.00
20350;BME280;10332;50.208;18.988;2022-12-07T02:10:24;97507.53;;;3.68;100.00
20350;BME280;10332;50.208;18.988;2022-12-07T02:13:19;97509.56;;;3.79;100.00
20350;BME280;10332;50.208;18.988;2022-12-07T02:31:25;97507.19;;;3.92;100.00
20350;BME280;10332;50.208;18.988;2022-12-07T02:36:55;97513.28;;;3.91;100.00
20350;BME280;10332;50.208;18.988;2022-12-07T02:39:43;97512.88;;;3.98;100.00
20350;BME280;10332;50.208;18.988;2022-12-07T02:42:25;97510.31;;;3.98;100.00
20350;BME280;10332;50.208;18.988;2022-12-07T02:44:54;97507.34;;;4.06;100.00
20350;BME280;10332;50.208;18.988;2022-12-07T02:47:24;97513.16;;;4.10;100.00
20350;BME280;10332;50.208;18.988;2022-12-07T02:49:53;97507.72;;;3.98;100.00
20350;BME280;10332;50.208;18.988;2022-12-07T02:52:20;97503.00;;;4.07;100.00
20350;BME280;10332;50.208;18.988;2022-12-07T02:54:48;97488.44;;;4.06;100.00
20350;BME280;10332;50.208;18.988;2022-12-07T02:57:41;97490.47;;;3.99;100.00
20350;BME280;10332;50.208;18.988;2022-12-07T03:00:17;97485.06;;;4.04;100.00
20350;BME280;10332;50.208;18.988;2022-12-07T03:03:09;97494.28;;;3.92;100.00
20350;BME280;10332;50.208;18.988;2022-12-07T03:09:20;97489.44;;;3.86;100.00
20350;BME280;10332;50.208;18.988;2022-12-07T03:12:20;97488.84;;;3.81;100.00
20350;BME280;10332;50.208;18.988;2022-12-07T03:15:06;97488.09;;;3.79;100.00
20350;BME280;10332;50.208;18.988;2022-12-07T03:17:40;97488.59;;;3.85;100.00
20350;BME280;10332;50.208;18.988;2022-12-07T03:20:13;97487.75;;;3.85;100.00
20350;BME280;10332;50.208;18.988;2022-12-07T03:22:45;97487.41;;;3.75;100.00
20350;BME280;10332;50.208;18.988;2022-12-07T03:25:16;97489.75;;;3.80;100.00
20350;BME280;10332;50.208;18.988;2022-12-07T03:27:51;97489.06;;;3.76;100.00
20350;BME280;10332;50.208;18.988;2022-12-07T03:30:29;97485.78;;;3.90;99.83
20350;BME280;10332;50.208;18.988;2022-12-07T03:33:23;97480.94;;;3.84;99.70
20350;BME280;10332;50.208;18.988;2022-12-07T03:36:26;97489.75;;;3.80;100.00
20350;BME280;10332;50.208;18.988;2022-12-07T03:41:40;97489.13;;;3.92;99.50
20350;BME280;10332;50.208;18.988;2022-12-07T03:44:14;97484.59;;;3.80;99.70
20350;BME280;10332;50.208;18.988;2022-12-07T03:47:12;97479.50;;;3.78;99.72
20350;BME280;10332;50.208;18.988;2022-12-07T03:50:02;97481.66;;;3.70;99.72
20350;BME280;10332;50.208;18.988;2022-12-07T03:53:01;97478.22;;;3.69;99.91
20350;BME280;10332;50.208;18.988;2022-12-07T03:55:39;97478.28;;;3.68;99.78
20350;BME280;10332;50.208;18.988;2022-12-07T03:58:16;97483.91;;;3.76;99.70
20350;BME280;10332;50.208;18.988;2022-12-07T04:00:46;97481.72;;;3.68;99.46
20350;BME280;10332;50.208;18.988;2022-12-07T04:03:13;97476.41;;;3.72;99.62
20350;BME280;10332;50.208;18.988;2022-12-07T04:05:42;97480.13;;;3.66;99.68
20350;BME280;10332;50.208;18.988;2022-12-07T04:08:10;97476.69;;;3.65;99.66
20350;BME280;10332;50.208;18.988;2022-12-07T04:10:37;97474.03;;;3.67;99.30
20350;BME280;10332;50.208;18.988;2022-12-07T04:13:05;97475.03;;;3.64;99.63
20350;BME280;10332;50.208;18.988;2022-12-07T04:15:32;97473.59;;;3.59;99.67
20350;BME280;10332;50.208;18.988;2022-12-07T04:18:00;97478.81;;;3.57;99.67
20350;BME280;10332;50.208;18.988;2022-12-07T04:20:27;97477.09;;;3.58;99.43
20350;BME280;10332;50.208;18.988;2022-12-07T04:22:54;97472.75;;;3.58;99.39
20350;BME280;10332;50.208;18.988;2022-12-07T04:25:22;97483.06;;;3.58;99.40
20350;BME280;10332;50.208;18.988;2022-12-07T04:27:49;97473.81;;;3.72;99.20
20350;BME280;10332;50.208;18.988;2022-12-07T04:30:18;97475.03;;;3.64;99.06
20350;BME280;10332;50.208;18.988;2022-12-07T04:32:46;97477.91;;;3.58;99.31
20350;BME280;10332;50.208;18.988;2022-12-07T04:35:13;97480.50;;;3.58;99.23
20350;BME280;10332;50.208;18.988;2022-12-07T04:37:41;97479.38;;;3.64;99.16
20350;BME280;10332;50.208;18.988;2022-12-07T04:40:10;97483.41;;;3.52;99.15
20350;BME280;10332;50.208;18.988;2022-12-07T04:42:38;97482.56;;;3.52;99.39
20350;BME280;10332;50.208;18.988;2022-12-07T04:45:06;97487.19;;;3.62;99.18
20350;BME280;10332;50.208;18.988;2022-12-07T04:47:34;97480.66;;;3.55;99.09
20350;BME280;10332;50.208;18.988;2022-12-07T04:50:01;97469.97;;;3.46;98.71
20350;BME280;10332;50.208;18.988;2022-12-07T04:52:29;97488.75;;;3.30;99.32
20350;BME280;10332;50.208;18.988;2022-12-07T04:54:56;97481.66;;;3.35;99.45
20350;BME280;10332;50.208;18.988;2022-12-07T04:57:24;97479.00;;;3.37;99.46
20350;BME280;10332;50.208;18.988;2022-12-07T04:59:51;97473.63;;;3.41;99.39
20350;BME280;10332;50.208;18.988;2022-12-07T05:02:19;97484.69;;;3.44;98.96
20350;BME280;10332;50.208;18.988;2022-12-07T05:04:46;97484.00;;;3.40;99.20
20350;BME280;10332;50.208;18.988;2022-12-07T05:07:14;97477.47;;;3.33;99.07
20350;BME280;10332;50.208;18.988;2022-12-07T05:09:41;97486.66;;;3.38;99.15
20350;BME280;10332;50.208;18.988;2022-12-07T05:12:08;97485.06;;;3.36;99.17
20350;BME280;10332;50.208;18.988;2022-12-07T05:14:36;97488.31;;;3.39;99.51
20350;BME280;10332;50.208;18.988;2022-12-07T05:17:03;97477.25;;;3.37;99.22
20350;BME280;10332;50.208;18.988;2022-12-07T05:19:31;97483.59;;;3.30;99.38
20350;BME280;10332;50.208;18.988;2022-12-07T05:21:58;97487.63;;;3.36;99.69
20350;BME280;10332;50.208;18.988;2022-12-07T05:24:26;97486.94;;;3.32;99.40
20350;BME280;10332;50.208;18.988;2022-12-07T05:26:53;97491.25;;;3.32;99.54
20350;BME280;10332;50.208;18.988;2022-12-07T05:29:21;97487.81;;;3.33;99.51
20350;BME280;10332;50.208;18.988;2022-12-07T05:31:48;97491.03;;;3.19;99.49
20350;BME280;10332;50.208;18.988;2022-12-07T05:34:16;97490.41;;;3.14;99.83
20350;BME280;10332;50.208;18.988;2022-12-07T05:36:43;97491.03;;;3.19;99.91
20350;BME280;10332;50.208;18.988;2022-12-07T05:39:11;97489.28;;;3.20;99.86
20350;BME280;10332;50.208;18.988;2022-12-07T05:41:38;97484.41;;;3.13;100.00
20350;BME280;10332;50.208;18.988;2022-12-07T05:44:24;97490.38;;;3.16;100.00
20350;BME280;10332;50.208;18.988;2022-12-07T05:46:52;97484.38;;;3.15;100.00
20350;BME280;10332;50.208;18.988;2022-12-07T05:49:19;97482.06;;;3.09;100.00
20350;BME280;10332;50.208;18.988;2022-12-07T05:51:46;97483.75;;;3.10;100.00
20350;BME280;10332;50.208;18.988;2022-12-07T05:54:14;97483.06;;;3.06;100.00
20350;BME280;10332;50.208;18.988;2022-12-07T05:56:41;97483.81;;;3.08;100.00
20350;BME280;10332;50.208;18.988;2022-12-07T05:59:09;97485.69;;;3.05;100.00
20350;BME280;10332;50.208;18.988;2022-12-07T06:01:56;97487.06;;;3.12;100.00
20350;BME280;10332;50.208;18.988;2022-12-07T06:04:29;97481.78;;;3.15;100.00
20350;BME280;10332;50.208;18.988;2022-12-07T06:06:57;97486.41;;;3.08;100.00
20350;BME280;10332;50.208;18.988;2022-12-07T06:09:26;97494.88;;;3.10;100.00
20350;BME280;10332;50.208;18.988;2022-12-07T06:11:55;97482.06;;;3.09;100.00
20350;BME280;10332;50.208;18.988;2022-12-07T06:14:42;97484.66;;;3.09;100.00
20350;BME280;10332;50.208;18.988;2022-12-07T06:17:10;97494.41;;;3.02;100.00
20350;BME280;10332;50.208;18.988;2022-12-07T06:19:39;97485.97;;;3.18;100.00
20350;BME280;10332;50.208;18.988;2022-12-07T06:22:08;97496.44;;;3.15;100.00
20350;BME280;10332;50.208;18.988;2022-12-07T06:24:36;97499.22;;;3.10;100.00
20350;BME280;10332;50.208;18.988;2022-12-07T06:27:04;97507.41;;;3.18;100.00
20350;BME280;10332;50.208;18.988;2022-12-07T06:29:32;97502.25;;;3.18;100.00
20350;BME280;10332;50.208;18.988;2022-12-07T06:32:00;97504.09;;;3.16;100.00
20350;BME280;10332;50.208;18.988;2022-12-07T06:34:27;97502.22;;;3.01;100.00
20350;BME280;10332;50.208;18.988;2022-12-07T06:36:55;97506.63;;;2.99;100.00
20350;BME280;10332;50.208;18.988;2022-12-07T06:39:26;97513.38;;;3.01;100.00
20350;BME280;10332;50.208;18.988;2022-12-07T06:41:54;97509.13;;;3.00;100.00
20350;BME280;10332;50.208;18.988;2022-12-07T06:44:22;97516.63;;;3.05;100.00
20350;BME280;10332;50.208;18.988;2022-12-07T06:46:51;97506.75;;;3.15;100.00
20350;BME280;10332;50.208;18.988;2022-12-07T06:49:39;97516.03;;;3.00;100.00
20350;BME280;10332;50.208;18.988;2022-12-07T06:52:06;97512.06;;;2.93;100.00
20350;BME280;10332;50.208;18.988;2022-12-07T06:54:34;97518.34;;;3.06;100.00
20350;BME280;10332;50.208;18.988;2022-12-07T06:57:01;97517.03;;;2.97;100.00
20350;BME280;10332;50.208;18.988;2022-12-07T06:59:28;97518.47;;;3.03;100.00
20350;BME280;10332;50.208;18.988;2022-12-07T07:01:56;97512.06;;;2.93;100.00
20350;BME280;10332;50.208;18.988;2022-12-07T07:04:23;97512.47;;;3.02;100.00
20350;BME280;10332;50.208;18.988;2022-12-07T07:06:51;97516.22;;;2.95;100.00
20350;BME280;10332;50.208;18.988;2022-12-07T07:09:26;97516.38;;;2.92;100.00
20350;BME280;10332;50.208;18.988;2022-12-07T07:11:54;97513.13;;;2.89;100.00
20350;BME280;10332;50.208;18.988;2022-12-07T07:14:22;97516.44;;;3.09;100.00
20350;BME280;10332;50.208;18.988;2022-12-07T07:16:50;97515.69;;;3.07;100.00
20350;BME280;10332;50.208;18.988;2022-12-07T07:19:17;97520.59;;;3.12;100.00
20350;BME280;10332;50.208;18.988;2022-12-07T07:21:45;97523.53;;;3.04;100.00
20350;BME280;10332;50.208;18.988;2022-12-07T07:24:12;97524.75;;;2.97;100.00
20350;BME280;10332;50.208;18.988;2022-12-07T07:26:40;97526.81;;;3.08;100.00
20350;BME280;10332;50.208;18.988;2022-12-07T07:29:07;97531.66;;;3.14;100.00
20350;BME280;10332;50.208;18.988;2022-12-07T07:31:35;97531.22;;;3.06;100.00
20350;BME280;10332;50.208;18.988;2022-12-07T07:34:03;97527.50;;;3.11;100.00
20350;BME280;10332;50.208;18.988;2022-12-07T07:36:32;97522.41;;;3.10;100.00
20350;BME280;10332;50.208;18.988;2022-12-07T07:39:00;97521.63;;;3.27;100.00
20350;BME280;10332;50.208;18.988;2022-12-07T07:41:27;97527.25;;;3.35;100.00
20350;BME280;10332;50.208;18.988;2022-12-07T07:43:55;97517.44;;;3.24;100.00
20350;BME280;10332;50.208;18.988;2022-12-07T07:46:22;97528.16;;;3.34;100.00
20350;BME280;10332;50.208;18.988;2022-12-07T07:48:50;97525.63;;;3.32;100.00
20350;BME280;10332;50.208;18.988;2022-12-07T07:51:17;97529.19;;;3.30;100.00
20350;BME280;10332;50.208;18.988;2022-12-07T07:53:45;97528.69;;;3.40;100.00
20350;BME280;10332;50.208;18.988;2022-12-07T07:56:13;97525.88;;;3.45;100.00
20350;BME280;10332;50.208;18.988;2022-12-07T07:58:40;97518.69;;;3.52;99.86
20350;BME280;10332;50.208;18.988;2022-12-07T08:01:08;97519.75;;;3.65;99.34
20350;BME280;10332;50.208;18.988;2022-12-07T08:03:36;97523.41;;;3.61;98.71
20350;BME280;10332;50.208;18.988;2022-12-07T08:06:04;97528.94;;;3.70;98.97
20350;BME280;10332;50.208;18.988;2022-12-07T08:08:31;97532.72;;;3.81;99.00
20350;BME280;10332;50.208;18.988;2022-12-07T08:10:59;97527.72;;;3.78;98.79
20350;BME280;10332;50.208;18.988;2022-12-07T08:13:28;97539.31;;;3.86;98.56
20350;BME280;10332;50.208;18.988;2022-12-07T08:15:58;97545.09;;;3.91;97.55
20350;BME280;10332;50.208;18.988;2022-12-07T08:18:26;97542.88;;;4.01;97.09
20350;BME280;10332;50.208;18.988;2022-12-07T08:21:00;97547.97;;;4.03;97.43
20350;BME280;10332;50.208;18.988;2022-12-07T08:23:31;97553.97;;;4.03;97.39
20350;BME280;10332;50.208;18.988;2022-12-07T08:26:13;97551.63;;;3.98;97.66
20350;BME280;10332;50.208;18.988;2022-12-07T08:28:42;97538.78;;;3.97;97.90
20350;BME280;10332;50.208;18.988;2022-12-07T08:31:16;97547.75;;;3.90;97.58
20350;BME280;10332;50.208;18.988;2022-12-07T08:33:47;97546.09;;;3.89;97.61
20350;BME280;10332;50.208;18.988;2022-12-07T08:36:16;97556.41;;;3.89;97.93
20350;BME280;10332;50.208;18.988;2022-12-07T08:38:45;97548.81;;;3.86;98.47
20350;BME280;10332;50.208;18.988;2022-12-07T08:41:33;97557.25;;;3.89;98.37
20350;BME280;10332;50.208;18.988;2022-12-07T08:44:01;97553.91;;;3.87;98.17
20350;BME280;10332;50.208;18.988;2022-12-07T08:46:52;97559.75;;;3.91;98.14
20350;BME280;10332;50.208;18.988;2022-12-07T08:49:43;97572.13;;;3.84;98.55
20350;BME280;10332;50.208;18.988;2022-12-07T08:52:13;97576.44;;;3.84;97.73
20350;BME280;10332;50.208;18.988;2022-12-07T08:54:41;97581.63;;;3.84;97.81
20350;BME280;10332;50.208;18.988;2022-12-07T08:57:10;97569.78;;;3.80;98.25
20350;BME280;10332;50.208;18.988;2022-12-07T08:59:38;97568.78;;;3.82;98.20
20350;BME280;10332;50.208;18.988;2022-12-07T09:02:06;97567.72;;;3.86;98.22
20350;BME280;10332;50.208;18.988;2022-12-07T09:04:34;97554.66;;;3.89;97.91
20350;BME280;10332;50.208;18.988;2022-12-07T09:07:01;97559.91;;;3.88;97.85
20350;BME280;10332;50.208;18.988;2022-12-07T09:09:29;97556.41;;;3.89;98.18
20350;BME280;10332;50.208;18.988;2022-12-07T09:11:56;97559.28;;;4.00;98.34
20350;BME280;10332;50.208;18.988;2022-12-07T09:14:24;97552.63;;;3.96;98.15
20350;BME280;10332;50.208;18.988;2022-12-07T09:16:52;97549.63;;;4.04;97.92
20350;BME280;10332;50.208;18.988;2022-12-07T09:19:19;97547.66;;;4.09;97.50
20350;BME280;10332;50.208;18.988;2022-12-07T09:21:47;97545.06;;;4.09;97.23
20350;BME280;10332;50.208;18.988;2022-12-07T09:24:14;97547.28;;;3.99;97.34
20350;BME280;10332;50.208;18.988;2022-12-07T09:26:42;97548.66;;;4.06;97.39
20350;BME280;10332;50.208;18.988;2022-12-07T09:29:09;97537.63;;;4.03;98.02
20350;BME280;10332;50.208;18.988;2022-12-07T09:31:37;97538.00;;;4.12;97.48
20350;BME280;10332;50.208;18.988;2022-12-07T09:34:05;97534.97;;;4.04;97.65
20350;BME280;10332;50.208;18.988;2022-12-07T09:36:34;97531.63;;;4.02;98.06
20350;BME280;10332;50.208;18.988;2022-12-07T09:39:03;97530.94;;;4.16;97.95
20350;BME280;10332;50.208;18.988;2022-12-07T09:41:32;97524.16;;;4.13;97.82
20350;BME280;10332;50.208;18.988;2022-12-07T09:44:07;97535.38;;;4.14;98.14
20350;BME280;10332;50.208;18.988;2022-12-07T09:46:41;97520.66;;;4.32;97.51
20350;BME280;10332;50.208;18.988;2022-12-07T09:49:19;97516.50;;;4.45;97.08
20350;BME280;10332;50.208;18.988;2022-12-07T09:51:48;97515.25;;;4.52;96.93
20350;BME280;10332;50.208;18.988;2022-12-07T09:54:26;97520.19;;;4.72;95.99
20350;BME280;10332;50.208;18.988;2022-12-07T09:56:55;97508.28;;;4.86;95.36
20350;BME280;10332;50.208;18.988;2022-12-07T09:59:22;97502.44;;;4.98;94.82
20350;BME280;10332;50.208;18.988;2022-12-07T10:01:50;97500.84;;;4.95;94.40
20350;BME280;10332;50.208;18.988;2022-12-07T10:04:25;97505.88;;;5.28;93.09
20350;BME280;10332;50.208;18.988;2022-12-07T10:06:53;97493.41;;;5.51;92.24
20350;BME280;10332;50.208;18.988;2022-12-07T10:09:22;97488.66;;;5.43;91.85
20350;BME280;10332;50.208;18.988;2022-12-07T10:12:11;97489.22;;;5.78;91.08
20350;BME280;10332;50.208;18.988;2022-12-07T10:14:55;97482.63;;;6.03;89.32
20350;BME280;10332;50.208;18.988;2022-12-07T10:17:41;97475.56;;;6.19;88.89
20350;BME280;10332;50.208;18.988;2022-12-07T10:20:25;97476.31;;;6.49;87.55
20350;BME280;10332;50.208;18.988;2022-12-07T10:23:07;97487.09;;;6.85;85.84
20350;BME280;10332;50.208;18.988;2022-12-07T10:25:40;97481.16;;;7.09;84.08
20350;BME280;10332;50.208;18.988;2022-12-07T10:28:18;97468.03;;;6.98;82.85
20350;BME280;10332;50.208;18.988;2022-12-07T10:31:17;97460.81;;;7.03;82.87
20350;BME280;10332;50.208;18.988;2022-12-07T10:33:56;97463.53;;;7.15;83.04
20350;BME280;10332;50.208;18.988;2022-12-07T10:36:27;97468.69;;;7.02;82.40
20350;BME280;10332;50.208;18.988;2022-12-07T10:39:14;97460.00;;;6.89;82.51
20350;BME280;10332;50.208;18.988;2022-12-07T10:41:57;97460.75;;;6.91;82.77
20350;BME280;10332;50.208;18.988;2022-12-07T10:44:33;97466.63;;;7.07;82.35
20350;BME280;10332;50.208;18.988;2022-12-07T10:47:58;97461.63;;;7.31;81.47
20350;BME280;10332;50.208;18.988;2022-12-07T11:07:45;97455.34;;;7.60;77.55
20350;BME280;10332;50.208;18.988;2022-12-07T11:18:59;97452.41;;;5.87;84.54
20350;BME280;10332;50.208;18.988;2022-12-07T11:25:01;97441.63;;;5.51;86.53
20350;BME280;10332;50.208;18.988;2022-12-07T11:30:20;97439.19;;;5.33;87.17
20350;BME280;10332;50.208;18.988;2022-12-07T11:33:05;97433.81;;;5.22;87.08
20350;BME280;10332;50.208;18.988;2022-12-07T11:36:00;97429.72;;;5.18;87.61
20350;BME280;10332;50.208;18.988;2022-12-07T11:38:53;97425.66;;;5.14;87.64
20350;BME280;10332;50.208;18.988;2022-12-07T11:41:35;97416.09;;;5.30;87.56
20350;BME280;10332;50.208;18.988;2022-12-07T11:44:46;97412.16;;;5.67;85.82
20350;BME280;10332;50.208;18.988;2022-12-07T11:50:41;97410.91;;;6.03;83.52
20350;BME280;10332;50.208;18.988;2022-12-07T12:06:43;97443.00;;;10.94;62.44
20350;BME280;10332;50.208;18.988;2022-12-07T12:09:34;97405.56;;;14.61;52.29
20350;BME280;10332;50.208;18.988;2022-12-07T12:12:54;97424.66;;;14.81;48.50
20350;BME280;10332;50.208;18.988;2022-12-07T12:18:58;97413.97;;;17.74;43.28
20350;BME280;10332;50.208;18.988;2022-12-07T12:21:30;97409.16;;;19.43;39.07
20350;BME280;10332;50.208;18.988;2022-12-07T12:26:39;97412.75;;;18.57;38.08
20350;BME280;10332;50.208;18.988;2022-12-07T12:29:31;97429.75;;;16.41;41.11
20350;BME280;10332;50.208;18.988;2022-12-07T12:32:14;97429.72;;;14.27;45.09
20350;BME280;10332;50.208;18.988;2022-12-07T12:35:00;97410.31;;;13.25;48.09
20350;BME280;10332;50.208;18.988;2022-12-07T12:42:50;97407.13;;;11.81;54.08
20350;BME280;10332;50.208;18.988;2022-12-07T12:45:31;97393.75;;;11.22;56.52
20350;BME280;10332;50.208;18.988;2022-12-07T12:48:49;97408.94;;;10.96;57.29
20350;BME280;10332;50.208;18.988;2022-12-07T12:51:37;97401.13;;;10.85;57.23
20350;BME280;10332;50.208;18.988;2022-12-07T12:56:52;97387.66;;;10.68;58.15
20350;BME280;10332;50.208;18.988;2022-12-07T12:59:31;97395.41;;;10.03;59.22
20350;BME280;10332;50.208;18.988;2022-12-07T13:18:38;97413.06;;;7.58;68.93
20350;BME280;10332;50.208;18.988;2022-12-07T13:32:01;97411.34;;;6.24;71.12
20350;BME280;10332;50.208;18.988;2022-12-07T13:34:36;97415.44;;;6.14;71.88
20350;BME280;10332;50.208;18.988;2022-12-07T13:39:53;97418.66;;;5.89;72.71
20350;BME280;10332;50.208;18.988;2022-12-07T13:42:29;97419.41;;;6.05;71.24
20350;BME280;10332;50.208;18.988;2022-12-07T13:45:00;97420.41;;;5.88;71.60
20350;BME280;10332;50.208;18.988;2022-12-07T13:50:26;97415.53;;;5.98;73.37
20350;BME280;10332;50.208;18.988;2022-12-07T13:53:00;97416.88;;;5.89;70.90
20350;BME280;10332;50.208;18.988;2022-12-07T13:55:29;97420.84;;;5.81;70.90
20350;BME280;10332;50.208;18.988;2022-12-07T13:57:57;97432.13;;;5.65;71.34
20350;BME280;10332;50.208;18.988;2022-12-07T14:00:28;97431.47;;;5.62;71.86
20350;BME280;10332;50.208;18.988;2022-12-07T14:03:03;97438.50;;;5.60;71.71
20350;BME280;10332;50.208;18.988;2022-12-07T14:05:33;97435.88;;;5.46;72.42
20350;BME280;10332;50.208;18.988;2022-12-07T14:08:21;97439.63;;;5.26;72.21
20350;BME280;10332;50.208;18.988;2022-12-07T14:16:31;97442.44;;;5.07;72.86
20350;BME280;10332;50.208;18.988;2022-12-07T14:19:03;97434.47;;;5.10;73.26
20350;BME280;10332;50.208;18.988;2022-12-07T14:21:34;97439.09;;;5.05;73.75
20350;BME280;10332;50.208;18.988;2022-12-07T14:24:17;97433.34;;;5.00;74.57
20350;BME280;10332;50.208;18.988;2022-12-07T14:26:48;97431.66;;;5.15;73.88
20350;BME280;10332;50.208;18.988;2022-12-07T14:31:55;97431.56;;;5.16;74.59
20350;BME280;10332;50.208;18.988;2022-12-07T14:34:23;97444.75;;;5.11;74.99
20350;BME280;10332;50.208;18.988;2022-12-07T14:36:51;97451.53;;;4.98;75.15
20350;BME280;10332;50.208;18.988;2022-12-07T14:39:19;97445.44;;;4.99;75.37
20350;BME280;10332;50.208;18.988;2022-12-07T14:41:46;97451.41;;;4.86;75.59
20350;BME280;10332;50.208;18.988;2022-12-07T14:44:22;97457.47;;;4.84;75.95
20350;BME280;10332;50.208;18.988;2022-12-07T14:46:58;97460.88;;;4.85;75.69
20350;BME280;10332;50.208;18.988;2022-12-07T14:49:45;97458.38;;;4.83;76.34
20350;BME280;10332;50.208;18.988;2022-12-07T14:52:25;97468.31;;;4.75;76.25
20350;BME280;10332;50.208;18.988;2022-12-07T14:55:25;97471.81;;;4.74;76.38
20350;BME280;10332;50.208;18.988;2022-12-07T14:57:54;97461.38;;;4.76;75.83
20350;BME280;10332;50.208;18.988;2022-12-07T15:00:26;97461.84;;;4.68;76.01
20350;BME280;10332;50.208;18.988;2022-12-07T15:02:54;97454.50;;;4.76;76.24
20350;BME280;10332;50.208;18.988;2022-12-07T15:05:23;97458.75;;;4.77;76.04
20350;BME280;10332;50.208;18.988;2022-12-07T15:07:51;97465.81;;;4.74;76.32
20350;BME280;10332;50.208;18.988;2022-12-07T15:10:26;97471.47;;;4.65;76.53
20350;BME280;10332;50.208;18.988;2022-12-07T15:13:01;97477.66;;;4.62;76.29
20350;BME280;10332;50.208;18.988;2022-12-07T15:15:52;97467.31;;;4.62;76.80
20350;BME280;10332;50.208;18.988;2022-12-07T15:18:22;97461.31;;;4.62;76.74
20350;BME280;10332;50.208;18.988;2022-12-07T15:20:50;97475.50;;;4.70;76.07
20350;BME280;10332;50.208;18.988;2022-12-07T15:23:18;97473.94;;;4.68;76.49
20350;BME280;10332;50.208;18.988;2022-12-07T15:25:48;97470.97;;;4.74;76.49
20350;BME280;10332;50.208;18.988;2022-12-07T15:28:16;97474.59;;;4.71;76.86
20350;BME280;10332;50.208;18.988;2022-12-07T15:30:44;97475.66;;;4.67;77.20
20350;BME280;10332;50.208;18.988;2022-12-07T15:33:12;97480.81;;;4.67;77.24
20350;BME280;10332;50.208;18.988;2022-12-07T15:35:42;97466.31;;;4.65;77.34
20350;BME280;10332;50.208;18.988;2022-12-07T15:38:10;97479.94;;;4.68;76.85
20350;BME280;10332;50.208;18.988;2022-12-07T15:40:39;97484.41;;;4.65;77.25
20350;BME280;10332;50.208;18.988;2022-12-07T15:43:09;97485.50;;;4.61;77.35